createdAt,value
2022-09-13T00:01:11.104Z,99725.59
2022-09-13T00:03:39.473Z,99725.88
2022-09-13T00:06:14.077Z,99729.28
2022-09-13T00:08:44.704Z,99721.69
2022-09-13T00:11:18.508Z,99727.84
2022-09-13T00:13:47.629Z,99730.47
2022-09-13T00:16:19.014Z,99734.00
2022-09-13T00:18:48.248Z,99726.28
2022-09-13T00:21:19.127Z,99717.91
2022-09-13T00:23:52.040Z,99706.03
2022-09-13T00:26:23.110Z,99701.69
2022-09-13T00:28:52.727Z,99704.28
2022-09-13T00:31:23.424Z,99695.88
2022-09-13T00:33:52.646Z,99686.44
2022-09-13T00:36:21.313Z,99686.81
2022-09-13T00:38:51.123Z,99689.50
2022-09-13T00:41:21.724Z,99682.78
2022-09-13T00:43:53.230Z,99689.75
2022-09-13T00:46:32.503Z,99681.28
2022-09-13T00:49:20.132Z,99681.50
2022-09-13T00:51:55.489Z,99676.53
2022-09-13T00:54:31.119Z,99671.56
2022-09-13T00:57:03.526Z,99661.38
2022-09-13T00:59:36.576Z,99662.47
2022-09-13T01:02:05.973Z,99662.03
2022-09-13T01:04:37.886Z,99653.50
2022-09-13T01:07:10.855Z,99653.66
2022-09-13T01:09:44.184Z,99642.38
2022-09-13T01:12:26.227Z,99652.31
2022-09-13T01:14:56.821Z,99654.13
2022-09-13T01:17:25.192Z,99658.06
2022-09-13T01:19:53.537Z,99659.75
2022-09-13T01:23:27.393Z,99655.75
2022-09-13T01:26:43.785Z,99667.06
2022-09-13T01:29:48.590Z,99677.16
2022-09-13T01:32:29.025Z,99669.72
2022-09-13T01:35:08.225Z,99666.06
2022-09-13T01:37:53.062Z,99674.09
2022-09-13T01:40:36.592Z,99676.72
2022-09-13T01:43:27.617Z,99660.03
2022-09-13T01:46:06.319Z,99658.22
2022-09-13T01:48:54.045Z,99651.53
2022-09-13T01:51:29.883Z,99641.97
2022-09-13T01:54:15.323Z,99630.66
2022-09-13T01:56:56.143Z,99626.66
2022-09-13T01:59:31.460Z,99620.78
2022-09-13T02:02:06.259Z,99611.31
2022-09-13T02:04:42.764Z,99617.47
2022-09-13T02:07:17.779Z,99637.69
2022-09-13T02:09:50.564Z,99649.41
2022-09-13T02:12:23.049Z,99656.47
2022-09-13T02:15:00.670Z,99654.53
2022-09-13T02:17:35.395Z,99661.34
2022-09-13T02:20:11.932Z,99659.50
2022-09-13T02:22:46.937Z,99667.34
2022-09-13T02:25:18.844Z,99665.53
2022-09-13T02:27:58.002Z,99672.53
2022-09-13T02:30:27.261Z,99673.38
2022-09-13T02:32:58.771Z,99670.72
2022-09-13T02:35:35.372Z,99674.94
2022-09-13T02:38:09.335Z,99674.16
2022-09-13T02:40:44.315Z,99666.59
2022-09-13T02:43:18.785Z,99667.44
2022-09-13T02:45:53.405Z,99668.53
2022-09-13T02:48:31.639Z,99661.69
2022-09-13T02:51:08.457Z,99660.00
2022-09-13T02:53:44.096Z,99668.41
2022-09-13T02:56:22.746Z,99669.13
2022-09-13T02:58:58.931Z,99671.88
2022-09-13T03:01:27.480Z,99668.28
2022-09-13T03:03:55.927Z,99670.94
2022-09-13T03:06:29.150Z,99670.38
2022-09-13T03:09:02.920Z,99671.44
2022-09-13T03:11:49.145Z,99662.66
2022-09-13T03:14:33.960Z,99668.56
2022-09-13T03:17:31.636Z,99658.47
2022-09-13T03:20:10.787Z,99644.88
2022-09-13T03:23:23.429Z,99651.09
2022-09-13T03:26:23.405Z,99644.38
2022-09-13T03:29:07.532Z,99644.31
2022-09-13T03:31:43.778Z,99643.78
2022-09-13T03:34:18.005Z,99646.50
2022-09-13T03:36:54.194Z,99644.56
2022-09-13T03:39:34.227Z,99640.31
2022-09-13T03:42:07.710Z,99638.59
2022-09-13T03:44:37.941Z,99636.97
2022-09-13T03:47:07.827Z,99639.81
2022-09-13T03:49:40.002Z,99644.94
2022-09-13T03:52:09.182Z,99644.44
2022-09-13T03:54:40.299Z,99646.63
2022-09-13T03:57:14.275Z,99632.75
2022-09-13T03:59:47.251Z,99630.03
2022-09-13T04:02:17.076Z,99629.78
2022-09-13T04:04:46.817Z,99619.78
2022-09-13T04:07:18.088Z,99621.81
2022-09-13T04:09:48.177Z,99632.38
2022-09-13T04:12:18.058Z,99617.59
2022-09-13T04:14:46.664Z,99617.78
2022-09-13T04:17:15.624Z,99623.97
2022-09-13T04:19:47.110Z,99618.06
2022-09-13T04:22:15.943Z,99616.31
2022-09-13T04:24:44.460Z,99617.41
2022-09-13T04:27:14.652Z,99619.34
2022-09-13T04:29:42.939Z,99617.75
2022-09-13T04:32:11.577Z,99614.34
2022-09-13T04:34:40.489Z,99620.53
2022-09-13T04:37:09.996Z,99631.84
2022-09-13T04:39:38.271Z,99625.59
2022-09-13T04:42:08.294Z,99632.63
2022-09-13T04:44:38.284Z,99635.47
2022-09-13T04:47:08.329Z,99633.56
2022-09-13T04:49:36.765Z,99626.63
2022-09-13T04:52:05.170Z,99630.97
2022-09-13T04:54:33.591Z,99634.59
2022-09-13T04:57:01.919Z,99630.97
2022-09-13T04:59:30.210Z,99631.63
2022-09-13T05:02:00.048Z,99623.72
2022-09-13T05:04:28.408Z,99634.03
2022-09-13T05:06:57.772Z,99636.72
2022-09-13T05:09:26.541Z,99647.28
2022-09-13T05:11:54.866Z,99651.78
2022-09-13T05:14:23.365Z,99654.22
2022-09-13T05:16:51.662Z,99658.47
2022-09-13T05:19:21.406Z,99667.81
2022-09-13T05:21:49.706Z,99640.69
2022-09-13T05:24:18.073Z,99651.16
2022-09-13T05:26:46.406Z,99653.00
2022-09-13T05:29:14.879Z,99652.72
2022-09-13T05:31:43.906Z,99660.44
2022-09-13T05:34:15.104Z,99657.00
2022-09-13T05:36:45.635Z,99654.50
2022-09-13T05:42:06.956Z,99656.91
2022-09-13T05:44:35.287Z,99652.25
2022-09-13T05:47:03.661Z,99661.69
2022-09-13T05:49:32.018Z,99667.53
2022-09-13T05:52:01.709Z,99681.75
2022-09-13T05:54:30.082Z,99685.28
2022-09-13T05:56:58.542Z,99689.53
2022-09-13T05:59:26.902Z,99682.63
2022-09-13T06:01:55.290Z,99679.09
2022-09-13T06:04:23.823Z,99679.13
2022-09-13T06:06:52.155Z,99671.09
2022-09-13T06:09:21.877Z,99672.66
2022-09-13T06:11:50.325Z,99675.28
2022-09-13T06:14:18.733Z,99676.94
2022-09-13T06:16:46.992Z,99679.25
2022-09-13T06:19:15.312Z,99676.63
2022-09-13T06:21:44.072Z,99672.16
2022-09-13T06:24:12.518Z,99661.09
2022-09-13T06:26:42.154Z,99660.19
2022-09-13T06:29:12.884Z,99660.94
2022-09-13T06:31:44.670Z,99657.31
2022-09-13T06:34:15.636Z,99659.75
2022-09-13T06:36:44.132Z,99649.44
2022-09-13T06:39:12.427Z,99648.41
2022-09-13T06:41:42.216Z,99662.94
2022-09-13T06:44:11.158Z,99661.03
2022-09-13T06:46:39.512Z,99665.16
2022-09-13T06:49:09.543Z,99673.66
2022-09-13T06:51:38.171Z,99676.28
2022-09-13T06:54:07.502Z,99672.09
2022-09-13T06:56:37.667Z,99680.81
2022-09-13T06:59:10.782Z,99672.81
2022-09-13T07:01:41.484Z,99683.94
2022-09-13T07:04:12.588Z,99697.50
2022-09-13T07:06:43.197Z,99693.56
2022-09-13T07:09:15.595Z,99687.34
2022-09-13T07:11:44.079Z,99691.66
2022-09-13T07:14:17.799Z,99683.41
2022-09-13T07:16:46.929Z,99687.03
2022-09-13T07:19:18.447Z,99687.66
2022-09-13T07:21:48.847Z,99684.81
2022-09-13T07:24:17.807Z,99683.47
2022-09-13T07:26:46.811Z,99687.78
2022-09-13T07:29:19.260Z,99679.81
2022-09-13T07:31:50.359Z,99690.16
2022-09-13T07:34:21.386Z,99688.75
2022-09-13T07:36:50.393Z,99684.41
2022-09-13T07:39:22.732Z,99675.56
2022-09-13T07:41:53.612Z,99677.41
2022-09-13T07:44:23.910Z,99674.00
2022-09-13T07:46:52.296Z,99687.38
2022-09-13T07:49:21.736Z,99678.31
2022-09-13T07:51:51.394Z,99674.00
2022-09-13T07:54:20.870Z,99675.56
2022-09-13T07:56:51.764Z,99678.97
2022-09-13T07:59:22.887Z,99664.53
2022-09-13T08:01:53.466Z,99668.63
2022-09-13T08:04:26.418Z,99653.44
2022-09-13T08:06:54.859Z,99642.53
2022-09-13T08:09:23.342Z,99635.00
2022-09-13T08:11:53.586Z,99636.47
2022-09-13T08:14:24.582Z,99639.88
2022-09-13T08:16:56.287Z,99645.97
2022-09-13T08:19:24.612Z,99647.13
2022-09-13T08:21:52.912Z,99643.81
2022-09-13T08:24:22.966Z,99646.81
2022-09-13T08:26:52.144Z,99636.88
2022-09-13T08:29:22.291Z,99645.81
2022-09-13T08:31:50.576Z,99655.16
2022-09-13T08:34:21.231Z,99654.53
2022-09-13T08:36:49.594Z,99663.56
2022-09-13T08:39:18.040Z,99665.44
2022-09-13T08:42:23.994Z,99671.06
2022-09-13T08:44:55.988Z,99669.13
2022-09-13T08:47:35.635Z,99662.88
2022-09-13T08:50:13.945Z,99668.38
2022-09-13T08:52:50.808Z,99666.38
2022-09-13T08:55:33.113Z,99676.16
2022-09-13T08:58:14.539Z,99669.16
2022-09-13T09:00:51.463Z,99661.63
2022-09-13T09:03:31.378Z,99667.81
2022-09-13T09:05:59.901Z,99670.63
2022-09-13T09:08:34.565Z,99667.56
2022-09-13T09:11:10.133Z,99666.75
2022-09-13T09:13:43.812Z,99660.97
2022-09-13T09:16:31.280Z,99668.75
2022-09-13T09:19:16.365Z,99666.31
2022-09-13T09:21:46.633Z,99668.84
2022-09-13T09:24:21.150Z,99653.72
2022-09-13T09:26:49.739Z,99646.94
2022-09-13T09:29:25.054Z,99632.63
2022-09-13T09:32:17.077Z,99653.81
2022-09-13T09:35:09.017Z,99662.28
2022-09-13T09:37:39.581Z,99652.59
2022-09-13T09:40:13.557Z,99648.84
2022-09-13T09:42:45.064Z,99645.28
2022-09-13T09:45:27.991Z,99626.91
2022-09-13T09:48:02.649Z,99628.06
2022-09-13T09:50:35.012Z,99634.47
2022-09-13T09:53:08.754Z,99642.03
2022-09-13T09:55:46.845Z,99641.03
2022-09-13T09:58:16.981Z,99658.53
2022-09-13T10:00:54.798Z,99666.91
2022-09-13T10:03:28.213Z,99677.72
2022-09-13T10:06:08.494Z,99672.47
2022-09-13T10:08:39.538Z,99676.94
2022-09-13T10:11:08.253Z,99673.53
2022-09-13T10:13:36.877Z,99668.28
2022-09-13T10:16:07.957Z,99663.81
2022-09-13T10:18:46.167Z,99658.88
2022-09-13T10:21:25.953Z,99669.75
2022-09-13T10:24:19.165Z,99672.91
2022-09-13T10:26:47.817Z,99668.97
2022-09-13T10:29:18.792Z,99673.94
2022-09-13T10:31:50.060Z,99673.91
2022-09-13T10:34:24.835Z,99671.81
2022-09-13T10:36:58.578Z,99661.97
2022-09-13T10:39:29.837Z,99660.97
2022-09-13T10:42:01.485Z,99659.97
2022-09-13T10:44:41.715Z,99664.09
2022-09-13T10:47:21.522Z,99669.19
2022-09-13T10:49:54.477Z,99668.72
2022-09-13T10:52:35.719Z,99674.50
2022-09-13T10:55:33.991Z,99673.34
2022-09-13T10:58:21.616Z,99672.41
2022-09-13T11:01:17.987Z,99676.06
2022-09-13T11:04:23.931Z,99674.53
2022-09-13T11:07:03.166Z,99670.97
2022-09-13T11:09:37.830Z,99672.34
2022-09-13T11:12:19.047Z,99664.09
2022-09-13T11:15:04.270Z,99657.41
2022-09-13T11:17:56.758Z,99659.97
2022-09-13T11:20:41.250Z,99649.31
2022-09-13T11:23:38.128Z,99655.28
2022-09-13T11:26:38.489Z,99648.88
2022-09-13T11:29:24.809Z,99641.38
2022-09-13T11:32:05.009Z,99634.41
2022-09-13T11:34:51.386Z,99643.50
2022-09-13T11:37:45.380Z,99648.81
2022-09-13T11:40:36.355Z,99641.59
2022-09-13T11:43:24.081Z,99640.09
2022-09-13T11:46:04.798Z,99629.66
2022-09-13T11:49:17.367Z,99631.44
2022-09-13T11:51:59.267Z,99620.00
2022-09-13T11:54:48.408Z,99621.97
2022-09-13T11:57:22.884Z,99619.59
2022-09-13T11:59:55.859Z,99612.50
2022-09-13T12:02:30.565Z,99618.47
2022-09-13T12:05:21.448Z,99626.91
2022-09-13T12:07:55.226Z,99626.94
2022-09-13T12:10:28.036Z,99621.88
2022-09-13T12:13:01.621Z,99613.41
2022-09-13T12:15:38.362Z,99606.84
2022-09-13T12:18:14.667Z,99607.16
2022-09-13T12:20:51.468Z,99603.44
2022-09-13T12:23:26.437Z,99604.91
2022-09-13T12:26:00.318Z,99603.41
2022-09-13T12:28:35.682Z,99594.44
2022-09-13T12:31:10.876Z,99596.06
2022-09-13T12:33:41.903Z,99582.06
2022-09-13T12:36:45.234Z,99582.28
2022-09-13T12:39:46.584Z,99562.69
2022-09-13T12:43:00.808Z,99571.47
2022-09-13T12:46:01.831Z,99570.03
2022-09-13T12:49:10.085Z,99568.94
2022-09-13T12:52:00.457Z,99576.47
2022-09-13T12:55:04.267Z,99576.69
2022-09-13T12:57:42.451Z,99578.81
2022-09-13T13:00:21.955Z,99581.28
2022-09-13T13:03:11.984Z,99583.84
2022-09-13T13:05:44.471Z,99572.91
2022-09-13T13:08:30.096Z,99570.63
2022-09-13T13:11:05.847Z,99565.34
2022-09-13T13:13:40.032Z,99567.97
2022-09-13T13:16:27.472Z,99567.78
2022-09-13T13:18:58.680Z,99557.78
2022-09-13T13:21:39.975Z,99561.00
2022-09-13T13:24:42.616Z,99561.66
2022-09-13T13:27:48.571Z,99559.72
2022-09-13T13:30:53.698Z,99551.59
2022-09-13T13:33:27.866Z,99542.25
2022-09-13T13:35:57.849Z,99546.91
2022-09-13T13:38:48.833Z,99547.13
2022-09-13T13:41:48.706Z,99552.22
2022-09-13T13:45:09.655Z,99542.59
2022-09-13T13:48:16.411Z,99541.22
2022-09-13T13:51:24.596Z,99533.63
2022-09-13T13:56:50.071Z,99530.38
2022-09-13T13:59:24.737Z,99525.34
2022-09-13T14:01:59.436Z,99515.66
2022-09-13T14:05:09.347Z,99515.44
2022-09-13T14:08:03.715Z,99516.13
2022-09-13T14:10:44.245Z,99507.44
2022-09-13T14:13:31.477Z,99503.97
2022-09-13T14:16:08.254Z,99512.31
2022-09-13T14:19:11.524Z,99507.03
2022-09-13T14:21:39.952Z,99513.03
2022-09-13T14:24:22.838Z,99502.34
2022-09-13T14:26:53.882Z,99500.81
2022-09-13T14:29:25.813Z,99502.94
2022-09-13T14:31:57.014Z,99508.78
2022-09-13T14:34:30.781Z,99513.53
2022-09-13T14:37:02.324Z,99514.94
2022-09-13T14:39:32.751Z,99508.06
2022-09-13T14:42:14.285Z,99495.66
2022-09-13T14:44:48.248Z,99501.72
2022-09-13T14:47:23.551Z,99495.69
2022-09-13T14:50:00.022Z,99501.78
2022-09-13T14:52:33.474Z,99497.66
2022-09-13T14:55:09.851Z,99495.19
2022-09-13T14:57:42.972Z,99482.78
2022-09-13T15:00:20.081Z,99477.81
2022-09-13T15:02:51.662Z,99473.22
2022-09-13T15:05:23.047Z,99471.41
2022-09-13T15:07:51.705Z,99474.88
2022-09-13T15:10:28.570Z,99461.91
2022-09-13T15:13:09.973Z,99468.66
2022-09-13T15:15:39.768Z,99461.72
2022-09-13T15:18:25.631Z,99459.19
2022-09-13T15:20:56.920Z,99456.44
2022-09-13T15:23:28.154Z,99448.66
2022-09-13T15:26:02.695Z,99453.25
2022-09-13T15:28:34.559Z,99435.38
2022-09-13T15:31:03.706Z,99448.16
2022-09-13T15:33:34.366Z,99450.81
2022-09-13T15:36:29.980Z,99444.78
2022-09-13T15:39:03.263Z,99443.09
2022-09-13T15:41:36.081Z,99447.63
2022-09-13T15:44:07.271Z,99441.97
2022-09-13T15:46:46.031Z,99449.97
2022-09-13T15:49:19.335Z,99445.09
2022-09-13T15:51:48.431Z,99441.81
2022-09-13T15:54:18.615Z,99429.47
2022-09-13T15:56:51.466Z,99443.03
2022-09-13T15:59:22.086Z,99434.25
2022-09-13T16:01:52.595Z,99432.59
2022-09-13T16:04:21.226Z,99430.91
2022-09-13T16:06:49.547Z,99430.72
2022-09-13T16:09:20.550Z,99425.44
2022-09-13T16:11:52.066Z,99429.94
2022-09-13T16:14:21.335Z,99420.38
2022-09-13T16:16:49.915Z,99425.63
2022-09-13T16:19:20.553Z,99430.91
2022-09-13T16:21:49.750Z,99429.38
2022-09-13T16:24:18.294Z,99417.16
2022-09-13T16:26:46.542Z,99417.16
2022-09-13T16:29:16.242Z,99413.22
2022-09-13T16:31:44.640Z,99418.19
2022-09-13T16:34:13.061Z,99416.03
2022-09-13T16:36:41.497Z,99409.09
2022-09-13T16:39:10.052Z,99407.75
2022-09-13T16:41:40.302Z,99409.88
2022-09-13T16:44:08.904Z,99413.59
2022-09-13T16:46:38.803Z,99417.00
2022-09-13T16:49:07.590Z,99425.09
2022-09-13T16:51:36.651Z,99420.75
2022-09-13T16:54:06.287Z,99424.13
2022-09-13T16:56:34.601Z,99429.41
2022-09-13T16:59:03.036Z,99445.38
2022-09-13T17:01:31.737Z,99439.28
2022-09-13T17:04:01.936Z,99439.28
2022-09-13T17:06:30.344Z,99436.72
2022-09-13T17:09:01.699Z,99433.72
2022-09-13T17:11:33.404Z,99428.25
2022-09-13T17:14:04.289Z,99433.72
2022-09-13T17:16:37.204Z,99432.41
2022-09-13T17:19:10.241Z,99437.22
2022-09-13T17:21:40.060Z,99446.84
2022-09-13T17:24:13.231Z,99450.19
2022-09-13T17:26:42.457Z,99451.94
2022-09-13T17:29:12.745Z,99451.03
2022-09-13T17:31:43.362Z,99457.31
2022-09-13T17:34:14.154Z,99455.53
2022-09-13T17:36:42.829Z,99449.41
2022-09-13T17:39:12.109Z,99450.25
2022-09-13T17:41:40.396Z,99441.75
2022-09-13T17:44:13.390Z,99429.53
2022-09-13T17:46:41.807Z,99438.19
2022-09-13T17:49:12.323Z,99437.44
2022-09-13T17:51:45.290Z,99441.75
2022-09-13T17:54:17.098Z,99448.91
2022-09-13T17:56:46.405Z,99461.19
2022-09-13T17:59:17.017Z,99461.31
2022-09-13T18:01:47.771Z,99457.06
2022-09-13T18:04:23.344Z,99458.28
2022-09-13T18:06:52.865Z,99452.84
2022-09-13T18:09:22.147Z,99443.44
2022-09-13T18:11:55.760Z,99437.84
2022-09-13T18:14:26.548Z,99442.16
2022-09-13T18:16:57.370Z,99448.31
2022-09-13T18:19:44.857Z,99451.78
2022-09-13T18:22:14.476Z,99455.63
2022-09-13T18:24:42.770Z,99448.63
2022-09-13T18:27:11.096Z,99450.53
2022-09-13T18:29:39.604Z,99440.94
2022-09-13T18:32:08.237Z,99435.13
2022-09-13T18:34:37.965Z,99435.38
2022-09-13T18:37:06.386Z,99416.31
2022-09-13T18:39:35.733Z,99416.31
2022-09-13T18:42:04.324Z,99405.19
2022-09-13T18:44:33.979Z,99406.16
2022-09-13T18:47:03.812Z,99400.13
2022-09-13T18:49:32.224Z,99405.56
2022-09-13T18:52:01.965Z,99411.91
2022-09-13T18:54:30.290Z,99406.00
2022-09-13T18:56:58.621Z,99412.28
2022-09-13T18:59:27.753Z,99419.22
2022-09-13T19:01:56.500Z,99431.16
2022-09-13T19:04:25.134Z,99436.34
2022-09-13T19:06:56.122Z,99431.94
2022-09-13T19:09:26.502Z,99440.59
2022-09-13T19:11:55.668Z,99434.38
2022-09-13T19:14:25.991Z,99436.34
2022-09-13T19:16:56.904Z,99435.00
2022-09-13T19:19:25.626Z,99424.00
2022-09-13T19:21:53.907Z,99426.03
2022-09-13T19:24:22.498Z,99430.44
2022-09-13T19:26:53.400Z,99431.03
2022-09-13T19:29:23.744Z,99421.28
2022-09-13T19:31:55.801Z,99424.31
2022-09-13T19:34:24.801Z,99427.34
2022-09-13T19:36:57.968Z,99422.84
2022-09-13T19:39:30.025Z,99420.03
2022-09-13T19:42:00.917Z,99418.34
2022-09-13T19:44:29.727Z,99408.59
2022-09-13T19:47:42.799Z,99406.81
2022-09-13T19:49:49.548Z,99404.84
2022-09-13T19:52:18.183Z,99408.31
2022-09-13T19:54:46.495Z,99412.53
2022-09-13T19:57:16.148Z,99414.91
2022-09-13T19:59:44.650Z,99420.44
2022-09-13T20:02:13.058Z,99419.19
2022-09-13T20:04:41.960Z,99416.66
2022-09-13T20:07:12.292Z,99419.38
2022-09-13T20:09:42.370Z,99413.28
2022-09-13T20:12:12.690Z,99425.00
2022-09-13T20:14:42.503Z,99413.81
2022-09-13T20:17:10.896Z,99419.72
2022-09-13T20:19:44.740Z,99414.28
2022-09-13T20:22:15.303Z,99417.94
2022-09-13T20:24:43.786Z,99408.56
2022-09-13T20:27:12.469Z,99410.41
2022-09-13T20:29:42.210Z,99407.97
2022-09-13T20:32:11.298Z,99411.44
2022-09-13T20:34:39.766Z,99420.00
2022-09-13T20:37:08.157Z,99417.53
2022-09-13T20:39:36.615Z,99422.78
2022-09-13T20:42:05.503Z,99428.06
2022-09-13T20:44:33.939Z,99435.00
2022-09-13T20:47:03.786Z,99431.63
2022-09-13T20:49:32.199Z,99429.91
2022-09-13T20:52:00.887Z,99419.56
2022-09-13T20:54:29.258Z,99407.44
2022-09-13T20:56:58.245Z,99422.13
2022-09-13T20:59:27.057Z,99419.31
2022-09-13T21:01:55.882Z,99403.63
2022-09-13T21:04:25.767Z,99400.09
2022-09-13T21:07:14.669Z,99411.34
2022-09-13T21:09:43.605Z,99403.81
2022-09-13T21:12:12.014Z,99403.16
2022-09-13T21:14:40.475Z,99410.19
2022-09-13T21:17:08.959Z,99405.19
2022-09-13T21:19:38.860Z,99400.03
2022-09-13T21:22:07.411Z,99392.56
2022-09-13T21:24:35.804Z,99389.44
2022-09-13T21:27:05.008Z,99383.28
2022-09-13T21:29:34.561Z,99378.56
2022-09-13T21:32:04.023Z,99376.03
2022-09-13T21:34:32.998Z,99372.66
2022-09-13T21:37:02.800Z,99374.34
2022-09-13T21:39:31.508Z,99379.75
2022-09-13T21:41:59.914Z,99364.00
2022-09-13T21:44:29.091Z,99359.59
2022-09-13T21:46:57.444Z,99353.50
2022-09-13T21:49:25.885Z,99348.91
2022-09-13T21:51:55.113Z,99340.53
2022-09-13T21:54:24.815Z,99333.50
2022-09-13T21:56:55.097Z,99327.56
2022-09-13T21:59:24.786Z,99324.13
2022-09-13T22:01:54.882Z,99331.66
2022-09-13T22:04:27.502Z,99347.09
2022-09-13T22:06:56.637Z,99362.66
2022-09-13T22:09:28.473Z,99347.09
2022-09-13T22:11:57.432Z,99351.75
2022-09-13T22:14:26.677Z,99359.44
2022-09-13T22:16:55.081Z,99352.16
2022-09-13T22:19:26.184Z,99335.81
2022-09-13T22:21:58.845Z,99340.97
2022-09-13T22:24:31.941Z,99336.81
2022-09-13T22:27:01.140Z,99329.19
2022-09-13T22:29:30.003Z,99321.31
2022-09-13T22:31:58.527Z,99314.22
2022-09-13T22:34:30.945Z,99310.16
2022-09-13T22:37:00.065Z,99303.28
2022-09-13T22:39:29.785Z,99298.97
2022-09-13T22:41:58.151Z,99286.03
2022-09-13T22:44:26.663Z,99288.22
2022-09-13T22:46:54.962Z,99286.81
2022-09-13T22:49:23.433Z,99285.13
2022-09-13T22:51:51.704Z,99298.13
2022-09-13T22:54:20.999Z,99294.75
2022-09-13T22:56:50.746Z,99298.91
2022-09-13T22:59:21.692Z,99309.13
2022-09-13T23:01:50.637Z,99314.91
2022-09-13T23:04:19.224Z,99317.53
2022-09-13T23:06:48.777Z,99321.84
2022-09-13T23:09:19.384Z,99319.03
2022-09-13T23:11:48.365Z,99314.97
2022-09-13T23:14:19.972Z,99302.13
2022-09-13T23:16:51.314Z,99294.56
2022-09-13T23:19:22.502Z,99292.72
2022-09-13T23:21:53.282Z,99288.31
2022-09-13T23:24:21.823Z,99283.22
2022-09-13T23:26:50.190Z,99276.03
2022-09-13T23:29:21.128Z,99268.50
2022-09-13T23:31:50.673Z,99274.44
2022-09-13T23:34:19.580Z,99273.59
2022-09-13T23:36:48.433Z,99277.00
2022-09-13T23:39:19.614Z,99276.13
2022-09-13T23:41:51.016Z,99275.22
2022-09-13T23:44:21.007Z,99269.38
2022-09-13T23:46:58.130Z,99272.16
2022-09-13T23:49:26.553Z,99274.25
2022-09-13T23:51:54.964Z,99284.50
2022-09-13T23:54:23.293Z,99284.44
2022-09-13T23:56:51.650Z,99287.72
2022-09-13T23:59:21.356Z,99285.00
